createdAt,value
2018-04-12T00:00:42.108Z,1.10
2018-04-12T00:03:09.597Z,0.87
2018-04-12T00:05:37.063Z,1.00
2018-04-12T00:08:04.553Z,1.07
2018-04-12T00:10:32.021Z,0.90
2018-04-12T00:12:59.552Z,1.00
2018-04-12T00:15:27.055Z,1.10
2018-04-12T00:17:54.518Z,1.10
2018-04-12T00:20:22.004Z,1.43
2018-04-12T00:22:49.463Z,1.40
2018-04-12T00:25:16.968Z,1.77
2018-04-12T00:27:44.440Z,1.87
2018-04-12T00:30:11.916Z,1.57
2018-04-12T00:32:39.371Z,1.90
2018-04-12T00:35:06.849Z,1.63
2018-04-12T00:37:34.306Z,1.70
2018-04-12T00:40:01.796Z,1.60
2018-04-12T00:42:29.323Z,1.70
2018-04-12T00:44:56.808Z,1.63
2018-04-12T00:47:24.273Z,1.77
2018-04-12T00:49:51.764Z,1.50
2018-04-12T00:52:19.229Z,1.77
2018-04-12T00:54:46.713Z,2.00
2018-04-12T00:57:14.206Z,1.67
2018-04-12T00:59:42.488Z,1.77
2018-04-12T01:02:09.952Z,1.90
2018-04-12T01:04:37.412Z,1.57
2018-04-12T01:07:04.901Z,1.90
2018-04-12T01:09:32.372Z,2.10
2018-04-12T01:11:59.852Z,1.80
2018-04-12T01:14:28.100Z,1.70
2018-04-12T01:16:55.588Z,2.03
2018-04-12T01:19:23.059Z,2.33
2018-04-12T01:21:50.561Z,2.40
2018-04-12T01:24:18.808Z,1.90
2018-04-12T01:26:46.284Z,2.13
2018-04-12T01:29:13.748Z,2.70
2018-04-12T01:31:41.258Z,2.30
2018-04-12T01:34:09.481Z,2.60
2018-04-12T01:36:36.969Z,2.13
2018-04-12T01:39:04.459Z,2.53
2018-04-12T01:41:31.943Z,2.50
2018-04-12T01:43:59.404Z,2.23
2018-04-12T01:46:26.871Z,2.60
2018-04-12T01:48:54.350Z,2.90
2018-04-12T01:51:21.848Z,3.47
2018-04-12T01:53:50.072Z,3.33
2018-04-12T01:56:17.579Z,3.27
2018-04-12T01:58:45.800Z,3.37
2018-04-12T02:01:14.037Z,3.73
2018-04-12T02:03:42.310Z,3.73
2018-04-12T02:08:43.785Z,3.10
2018-04-12T02:11:11.308Z,4.30
2018-04-12T02:13:39.605Z,4.03
2018-04-12T02:16:07.067Z,4.03
2018-04-12T02:18:34.554Z,3.47
2018-04-12T02:21:02.016Z,4.50
2018-04-12T02:23:29.515Z,3.97
2018-04-12T02:25:57.746Z,4.20
2018-04-12T02:28:25.231Z,4.50
2018-04-12T02:30:52.708Z,4.43
2018-04-12T02:33:20.212Z,3.97
2018-04-12T02:35:48.439Z,4.80
2018-04-12T02:38:15.940Z,4.60
2018-04-12T02:40:43.404Z,4.00
2018-04-12T02:43:10.907Z,5.33
2018-04-12T02:45:38.364Z,4.73
2018-04-12T02:48:05.849Z,4.90
2018-04-12T02:50:33.319Z,5.53
2018-04-12T02:53:01.591Z,5.50
2018-04-12T02:55:29.059Z,5.27
2018-04-12T02:57:56.534Z,4.80
2018-04-12T03:00:23.996Z,6.03
2018-04-12T03:02:51.482Z,5.43
2018-04-12T03:05:18.980Z,5.70
2018-04-12T03:07:47.207Z,5.27
2018-04-12T03:10:14.719Z,5.77
2018-04-12T03:12:42.214Z,6.30
2018-04-12T03:15:09.732Z,6.13
2018-04-12T03:17:37.187Z,5.23
2018-04-12T03:20:04.681Z,5.70
2018-04-12T03:22:32.513Z,5.70
2018-04-12T03:25:00.024Z,5.93
2018-04-12T03:27:27.492Z,6.23
2018-04-12T03:29:55.007Z,5.83
2018-04-12T03:32:22.450Z,7.17
2018-04-12T03:34:49.931Z,6.53
2018-04-12T03:37:17.413Z,6.47
2018-04-12T03:39:44.898Z,7.10
2018-04-12T03:42:13.152Z,6.60
2018-04-12T03:44:40.638Z,6.47
2018-04-12T03:47:08.099Z,6.70
2018-04-12T03:49:35.619Z,6.77
2018-04-12T03:52:03.817Z,6.77
2018-04-12T03:54:31.313Z,6.80
2018-04-12T03:56:58.780Z,7.87
2018-04-12T03:59:26.240Z,7.37
2018-04-12T04:01:53.713Z,7.13
2018-04-12T04:04:21.190Z,7.00
2018-04-12T04:06:48.725Z,6.70
2018-04-12T04:09:16.963Z,7.50
2018-04-12T04:11:44.440Z,7.17
2018-04-12T04:14:23.737Z,7.50
2018-04-12T04:17:03.077Z,7.43
2018-04-12T04:19:43.211Z,7.17
2018-04-12T04:22:12.313Z,8.57
2018-04-12T04:24:39.781Z,7.60
2018-04-12T04:27:07.261Z,8.57
2018-04-12T04:29:34.736Z,8.40
2018-04-12T04:32:02.221Z,9.30
2018-04-12T04:34:30.448Z,9.43
2018-04-12T04:36:57.966Z,8.10
2018-04-12T04:39:25.458Z,8.10
2018-04-12T04:41:53.727Z,8.90
2018-04-12T04:44:21.992Z,8.60
2018-04-12T04:46:49.481Z,7.93
2018-04-12T04:49:16.959Z,8.43
2018-04-12T04:51:44.447Z,7.93
2018-04-12T04:54:12.709Z,8.40
2018-04-12T04:56:40.167Z,8.27
2018-04-12T04:59:07.676Z,9.00
2018-04-12T05:01:35.917Z,8.70
2018-04-12T05:04:03.412Z,7.83
2018-04-12T05:06:30.873Z,8.07
2018-04-12T05:08:58.352Z,8.80
2018-04-12T05:11:25.816Z,8.50
2018-04-12T05:13:55.307Z,8.13
2018-04-12T05:16:22.776Z,8.30
2018-04-12T05:18:50.251Z,8.27
2018-04-12T05:21:17.716Z,8.97
2018-04-12T05:23:45.195Z,8.30
2018-04-12T05:26:12.657Z,8.17
2018-04-12T05:28:40.199Z,8.17
2018-04-12T05:31:08.500Z,7.37
2018-04-12T05:33:35.961Z,7.70
2018-04-12T05:36:04.215Z,8.53
2018-04-12T05:38:31.689Z,8.37
2018-04-12T05:40:59.168Z,7.83
2018-04-12T05:43:26.630Z,8.73
2018-04-12T05:45:54.119Z,8.23
2018-04-12T05:48:21.588Z,8.33
2018-04-12T05:50:49.076Z,7.90
2018-04-12T05:53:16.557Z,7.60
2018-04-12T05:55:44.162Z,7.67
2018-04-12T05:58:11.591Z,7.17
2018-04-12T06:00:39.848Z,7.13
2018-04-12T06:03:07.355Z,7.13
2018-04-12T06:05:34.841Z,7.80
2018-04-12T06:08:02.323Z,7.83
2018-04-12T06:10:29.822Z,8.53
2018-04-12T06:12:57.310Z,7.43
2018-04-12T06:15:24.772Z,7.13
2018-04-12T06:17:52.297Z,7.83
2018-04-12T06:20:19.755Z,7.30
2018-04-12T06:22:47.247Z,7.17
2018-04-12T06:25:14.711Z,7.57
2018-04-12T06:27:42.192Z,9.30
2018-04-12T06:30:09.660Z,8.57
2018-04-12T06:32:37.147Z,7.80
2018-04-12T06:35:04.617Z,7.10
2018-04-12T06:37:32.135Z,9.30
2018-04-12T06:39:59.608Z,8.17
2018-04-12T06:42:27.888Z,8.37
2018-04-12T06:44:55.352Z,7.10
2018-04-12T06:47:22.821Z,6.57
2018-04-12T06:49:50.319Z,6.80
2018-04-12T06:52:17.780Z,6.03
2018-04-12T06:54:45.250Z,5.93
2018-04-12T06:57:12.743Z,6.50
2018-04-12T06:59:40.246Z,5.30
2018-04-12T07:02:07.726Z,5.93
2018-04-12T07:04:35.229Z,5.43
2018-04-12T07:07:03.476Z,5.07
2018-04-12T07:09:30.968Z,4.90
2018-04-12T07:11:58.447Z,5.03
2018-04-12T07:14:25.923Z,5.10
2018-04-12T07:16:53.375Z,4.70
2018-04-12T07:19:20.975Z,4.63
2018-04-12T07:21:48.463Z,4.40
2018-04-12T07:24:16.725Z,4.80
2018-04-12T07:26:44.187Z,4.67
2018-04-12T07:29:11.660Z,4.90
2018-04-12T07:31:39.170Z,3.87
2018-04-12T07:34:07.404Z,4.00
2018-04-12T07:36:34.888Z,3.87
2018-04-12T07:39:02.344Z,3.70
2018-04-12T07:41:29.819Z,3.73
2018-04-12T07:43:57.301Z,4.23
2018-04-12T07:46:24.785Z,4.30
2018-04-12T07:48:52.248Z,4.50
2018-04-12T07:51:19.724Z,3.90
2018-04-12T07:53:47.973Z,3.50
2018-04-12T07:56:15.451Z,3.90
2018-04-12T07:58:42.936Z,3.50
2018-04-12T08:01:10.428Z,3.57
2018-04-12T08:03:37.888Z,3.60
2018-04-12T08:06:06.160Z,3.50
2018-04-12T08:08:33.645Z,2.97
2018-04-12T08:11:01.108Z,3.23
2018-04-12T08:13:28.590Z,2.73
2018-04-12T08:15:56.069Z,2.50
2018-04-12T08:18:23.551Z,2.43
2018-04-12T08:20:51.012Z,2.20
2018-04-12T08:23:18.501Z,2.23
2018-04-12T08:25:45.976Z,2.33
2018-04-12T08:28:13.460Z,2.10
2018-04-12T08:30:40.960Z,2.57
2018-04-12T08:33:08.445Z,2.20
2018-04-12T08:35:35.918Z,2.30
2018-04-12T08:38:04.231Z,2.27
2018-04-12T08:40:32.481Z,1.97
2018-04-12T08:43:00.766Z,1.77
2018-04-12T08:45:28.247Z,2.15
2018-04-12T08:47:55.716Z,2.08
2018-04-12T08:50:23.213Z,1.73
2018-04-12T08:52:50.687Z,2.35
2018-04-12T08:55:18.164Z,2.20
2018-04-12T08:57:45.665Z,2.03
2018-04-12T09:00:13.223Z,2.00
2018-04-12T09:02:41.465Z,2.80
2018-04-12T09:05:09.733Z,2.20
2018-04-12T09:07:37.200Z,2.22
2018-04-12T09:10:04.693Z,2.00
2018-04-12T09:12:32.164Z,2.37
2018-04-12T09:14:59.657Z,2.00
2018-04-12T09:17:27.131Z,2.20
2018-04-12T09:19:54.607Z,2.12
2018-04-12T09:22:22.119Z,2.00
2018-04-12T09:24:49.639Z,1.95
2018-04-12T09:27:17.109Z,2.20
2018-04-12T09:29:44.593Z,2.22
2018-04-12T09:32:12.097Z,2.37
2018-04-12T09:34:39.603Z,1.85
2018-04-12T09:37:07.106Z,2.00
2018-04-12T09:39:35.399Z,1.65
2018-04-12T09:42:02.892Z,1.98
2018-04-12T09:44:31.140Z,1.67
2018-04-12T09:46:58.623Z,2.17
2018-04-12T09:49:26.127Z,1.95
2018-04-12T09:51:54.364Z,2.33
2018-04-12T09:54:21.832Z,1.70
2018-04-12T09:56:49.380Z,1.60
2018-04-12T09:59:16.903Z,2.23
2018-04-12T10:01:50.173Z,2.20
2018-04-12T10:04:17.636Z,1.80
2018-04-12T10:06:52.822Z,2.08
2018-04-12T10:09:21.098Z,1.70
2018-04-12T10:11:48.587Z,2.70
2018-04-12T10:14:16.098Z,2.50
2018-04-12T10:16:43.652Z,2.80
2018-04-12T10:19:11.112Z,2.47
2018-04-12T10:21:38.650Z,2.57
2018-04-12T10:24:06.832Z,2.83
2018-04-12T10:26:34.333Z,3.10
2018-04-12T10:29:01.880Z,3.30
2018-04-12T10:31:29.377Z,2.37
2018-04-12T10:33:56.897Z,3.13
2018-04-12T10:36:24.362Z,3.67
2018-04-12T10:38:51.875Z,3.87
2018-04-12T10:41:19.346Z,4.80
2018-04-12T10:43:46.830Z,4.90
2018-04-12T10:46:14.291Z,6.80
2018-04-12T10:48:41.876Z,5.60
2018-04-12T10:51:09.342Z,6.30
2018-04-12T10:53:36.834Z,5.40
2018-04-12T10:56:04.317Z,6.20
2018-04-12T10:58:32.593Z,5.43
2018-04-12T11:01:00.060Z,6.07
2018-04-12T11:03:27.613Z,5.00
2018-04-12T11:05:55.059Z,5.40
2018-04-12T11:08:22.521Z,5.60
2018-04-12T11:10:50.013Z,5.23
2018-04-12T11:13:17.511Z,4.67
2018-04-12T11:15:45.049Z,5.20
2018-04-12T11:18:12.556Z,4.23
2018-04-12T11:20:40.073Z,4.10
2018-04-12T11:23:07.560Z,4.70
2018-04-12T11:25:35.106Z,5.90
2018-04-12T11:28:02.616Z,5.87
2018-04-12T11:30:30.114Z,6.05
2018-04-12T11:32:57.648Z,7.47
2018-04-12T11:35:25.134Z,5.10
2018-04-12T11:37:52.610Z,6.35
2018-04-12T11:40:20.110Z,4.65
2018-04-12T11:42:47.592Z,4.55
2018-04-12T11:45:15.083Z,4.80
2018-04-12T11:47:42.557Z,6.65
2018-04-12T11:50:10.066Z,7.03
2018-04-12T11:52:37.567Z,5.55
2018-04-12T11:55:05.889Z,5.75
2018-04-12T11:57:33.399Z,5.30
2018-04-12T12:00:00.882Z,5.00
2018-04-12T12:02:29.164Z,5.07
2018-04-12T12:04:56.643Z,4.05
2018-04-12T12:07:24.123Z,3.83
2018-04-12T12:09:51.598Z,4.05
2018-04-12T12:12:19.845Z,4.80
2018-04-12T12:14:47.328Z,4.40
2018-04-12T12:17:14.856Z,4.35
2018-04-12T12:19:42.313Z,4.37
2018-04-12T12:22:09.829Z,4.07
2018-04-12T12:24:38.299Z,3.78
2018-04-12T12:27:05.792Z,3.70
2018-04-12T12:29:33.277Z,3.33
2018-04-12T12:32:00.774Z,3.10
2018-04-12T12:34:29.027Z,3.83
2018-04-12T12:36:56.536Z,3.80
2018-04-12T12:39:24.012Z,2.90
2018-04-12T12:41:52.332Z,3.13
2018-04-12T12:44:19.859Z,2.73
2018-04-12T12:46:47.324Z,2.17
2018-04-12T12:49:14.811Z,2.30
2018-04-12T12:51:42.394Z,2.20
2018-04-12T12:54:10.648Z,2.37
2018-04-12T12:56:38.134Z,2.13
2018-04-12T12:59:06.520Z,1.67
2018-04-12T13:01:34.036Z,1.93
2018-04-12T13:04:02.363Z,1.90
2018-04-12T13:06:29.904Z,1.63
2018-04-12T13:08:57.447Z,1.53
2018-04-12T13:11:24.933Z,1.77
2018-04-12T13:13:53.234Z,2.17
2018-04-12T13:16:20.686Z,2.03
2018-04-12T13:18:49.010Z,1.77
2018-04-12T13:21:16.516Z,1.90
2018-04-12T13:23:44.022Z,1.97
2018-04-12T13:26:12.357Z,2.20
2018-04-12T13:28:39.843Z,1.80
2018-04-12T13:31:07.347Z,1.90
2018-04-12T13:33:34.868Z,1.90
2018-04-12T13:36:02.375Z,2.40
2018-04-12T13:38:29.896Z,2.97
2018-04-12T13:40:57.381Z,2.07
2018-04-12T13:43:24.865Z,1.90
2018-04-12T13:45:52.357Z,2.00
2018-04-12T13:48:19.909Z,1.67
2018-04-12T13:50:47.406Z,2.07
2018-04-12T13:53:14.876Z,2.13
2018-04-12T13:55:42.401Z,2.00
2018-04-12T13:58:09.940Z,2.20
2018-04-12T14:00:38.179Z,1.77
2018-04-12T14:03:05.658Z,1.80
2018-04-12T14:05:33.122Z,1.80
2018-04-12T14:08:00.596Z,1.60
2018-04-12T14:10:28.077Z,2.80
2018-04-12T14:12:55.560Z,2.10
2018-04-12T14:15:23.032Z,1.70
2018-04-12T14:17:50.517Z,2.10
2018-04-12T14:20:17.984Z,2.00
2018-04-12T14:22:45.463Z,2.40
2018-04-12T14:25:12.936Z,2.20
2018-04-12T14:27:41.217Z,2.60
2018-04-12T14:30:08.680Z,2.00
2018-04-12T14:32:36.170Z,2.90
2018-04-12T14:35:04.436Z,3.20
2018-04-12T14:37:31.948Z,2.53
2018-04-12T14:39:59.452Z,2.90
2018-04-12T14:42:26.926Z,2.80
2018-04-12T14:44:54.441Z,2.50
2018-04-12T14:47:21.933Z,2.37
2018-04-12T14:49:49.459Z,2.73
2018-04-12T14:52:16.948Z,2.70
2018-04-12T14:54:45.228Z,2.70
2018-04-12T14:57:12.719Z,2.77
2018-04-12T14:59:40.975Z,2.30
2018-04-12T15:02:08.459Z,1.93
2018-04-12T15:04:35.950Z,1.93
2018-04-12T15:07:04.192Z,2.67
2018-04-12T15:09:31.685Z,2.30
2018-04-12T15:11:59.157Z,1.90
2018-04-12T15:14:26.633Z,2.20
2018-04-12T15:16:54.093Z,2.53
2018-04-12T15:19:21.578Z,2.20
2018-04-12T15:21:49.047Z,2.60
2018-04-12T15:24:16.535Z,2.33
2018-04-12T15:26:44.861Z,2.80
2018-04-12T15:29:12.338Z,2.63
2018-04-12T15:31:39.808Z,3.23
2018-04-12T15:34:07.299Z,3.40
2018-04-12T15:36:34.782Z,3.20
2018-04-12T15:39:02.291Z,2.80
2018-04-12T15:41:30.521Z,2.60
2018-04-12T15:43:57.997Z,3.03
2018-04-12T15:46:25.489Z,3.20
2018-04-12T15:48:53.025Z,3.50
2018-04-12T15:51:20.518Z,5.30
2018-04-12T15:53:47.992Z,3.40
2018-04-12T15:56:15.479Z,3.37
2018-04-12T15:58:42.948Z,2.60
2018-04-12T16:01:10.433Z,3.23
2018-04-12T16:03:37.904Z,3.47
2018-04-12T16:06:05.431Z,2.73
2018-04-12T16:08:32.908Z,3.07
2018-04-12T16:11:00.388Z,2.20
2018-04-12T16:13:27.851Z,2.77
2018-04-12T16:15:55.361Z,2.93
2018-04-12T16:18:23.625Z,2.97
2018-04-12T16:20:51.112Z,4.13
2018-04-12T16:23:18.583Z,2.40
2018-04-12T16:25:46.073Z,2.70
2018-04-12T16:28:14.307Z,2.63
2018-04-12T16:30:41.800Z,2.20
2018-04-12T16:33:09.257Z,2.57
2018-04-12T16:35:36.721Z,2.33
2018-04-12T16:38:04.199Z,2.20
2018-04-12T16:40:31.662Z,3.23
2018-04-12T16:42:59.165Z,2.90
2018-04-12T16:45:26.779Z,3.27
2018-04-12T16:47:54.267Z,2.40
2018-04-12T16:50:21.748Z,2.27
2018-04-12T16:52:49.246Z,2.90
2018-04-12T16:55:16.734Z,2.20
2018-04-12T16:57:44.385Z,2.73
2018-04-12T17:00:11.887Z,3.47
2018-04-12T17:02:40.138Z,3.67
2018-04-12T17:05:07.627Z,2.93
2018-04-12T17:07:35.116Z,2.80
2018-04-12T17:10:03.405Z,2.90
2018-04-12T17:12:31.690Z,3.20
2018-04-12T17:14:59.150Z,2.40
2018-04-12T17:17:26.682Z,3.00
2018-04-12T17:19:54.159Z,2.60
2018-04-12T17:22:21.643Z,2.40
2018-04-12T17:24:49.134Z,2.77
2018-04-12T17:27:17.561Z,2.70
2018-04-12T17:29:45.029Z,2.70
2018-04-12T17:32:13.333Z,2.43
2018-04-12T17:34:40.825Z,2.47
2018-04-12T17:37:08.298Z,2.67
2018-04-12T17:39:35.787Z,2.67
2018-04-12T17:42:03.312Z,2.47
2018-04-12T17:44:31.612Z,2.57
2018-04-12T17:46:59.075Z,2.77
2018-04-12T17:49:26.569Z,3.63
2018-04-12T17:51:54.052Z,3.50
2018-04-12T17:54:21.545Z,2.87
2018-04-12T17:56:49.041Z,2.60
2018-04-12T17:59:16.520Z,2.90
2018-04-12T18:01:44.740Z,2.60
2018-04-12T18:04:12.246Z,2.63
2018-04-12T18:06:39.713Z,2.77
2018-04-12T18:09:07.265Z,2.40
2018-04-12T18:11:34.755Z,2.90
2018-04-12T18:14:02.258Z,2.47
2018-04-12T18:16:29.720Z,3.03
2018-04-12T18:18:57.189Z,2.70
2018-04-12T18:21:24.696Z,3.33
2018-04-12T18:23:52.157Z,3.03
2018-04-12T18:26:20.535Z,3.30
2018-04-12T18:28:47.982Z,3.00
2018-04-12T18:31:15.485Z,3.67
2018-04-12T18:33:43.712Z,3.20
2018-04-12T18:36:11.200Z,3.67
2018-04-12T18:38:38.719Z,3.40
2018-04-12T18:41:07.015Z,3.50
2018-04-12T18:43:34.489Z,3.60
2018-04-12T18:46:02.240Z,3.87
2018-04-12T18:48:30.472Z,4.30
2018-04-12T18:50:57.955Z,3.90
2018-04-12T18:53:25.428Z,5.00
2018-04-12T18:55:52.905Z,3.80
2018-04-12T18:58:20.375Z,4.30
2018-04-12T19:00:47.868Z,4.37
2018-04-12T19:03:15.376Z,5.00
2018-04-12T19:05:43.619Z,4.37
2018-04-12T19:08:11.088Z,5.10
2018-04-12T19:10:38.600Z,5.00
2018-04-12T19:13:06.825Z,3.90
2018-04-12T19:15:34.330Z,3.63
2018-04-12T19:18:01.800Z,4.23
2018-04-12T19:20:29.391Z,4.80
2018-04-12T19:22:56.858Z,4.73
2018-04-12T19:25:24.323Z,4.67
2018-04-12T19:27:51.810Z,5.10
2018-04-12T19:30:20.051Z,4.60
2018-04-12T19:32:47.547Z,4.30
2018-04-12T19:35:15.035Z,4.27
2018-04-12T19:37:43.324Z,4.83
2018-04-12T19:40:10.791Z,3.83
2018-04-12T19:42:38.272Z,4.03
2018-04-12T19:45:06.507Z,3.93
2018-04-12T19:47:33.991Z,4.10
2018-04-12T19:50:01.475Z,4.43
2018-04-12T19:52:28.963Z,4.23
2018-04-12T19:54:57.219Z,5.10
2018-04-12T19:57:24.740Z,3.47
2018-04-12T19:59:53.122Z,4.30
2018-04-12T20:02:20.821Z,3.50
2018-04-12T20:04:48.460Z,3.77
2018-04-12T20:07:16.336Z,3.83
2018-04-12T20:09:44.678Z,4.63
2018-04-12T20:12:12.351Z,4.70
2018-04-12T20:14:39.902Z,4.20
2018-04-12T20:17:08.155Z,4.10
2018-04-12T20:19:35.729Z,3.67
2018-04-12T20:22:03.256Z,3.60
2018-04-12T20:24:30.776Z,3.57
2018-04-12T20:26:58.295Z,3.63
2018-04-12T20:29:25.831Z,3.50
2018-04-12T20:31:53.319Z,3.90
2018-04-12T20:34:21.595Z,3.40
2018-04-12T20:36:49.077Z,3.40
2018-04-12T20:39:17.487Z,3.43
2018-04-12T20:41:45.022Z,3.30
2018-04-12T20:44:12.548Z,2.87
2018-04-12T20:46:40.002Z,3.30
2018-04-12T20:49:07.507Z,3.40
2018-04-12T20:51:35.001Z,3.17
2018-04-12T20:54:02.495Z,3.20
2018-04-12T20:56:30.716Z,3.07
2018-04-12T20:58:58.223Z,2.90
2018-04-12T21:01:25.712Z,2.87
2018-04-12T21:03:53.172Z,3.37
2018-04-12T21:06:20.678Z,2.97
2018-04-12T21:08:48.183Z,3.40
2018-04-12T21:11:15.682Z,3.23
2018-04-12T21:13:43.242Z,3.40
2018-04-12T21:16:10.739Z,2.47
2018-04-12T21:18:38.992Z,3.33
2018-04-12T21:21:06.511Z,3.97
2018-04-12T21:23:34.077Z,3.63
2018-04-12T21:26:02.376Z,3.17
2018-04-12T21:28:29.848Z,2.90
2018-04-12T21:30:58.117Z,2.90
2018-04-12T21:33:25.575Z,2.97
2018-04-12T21:35:53.058Z,2.97
2018-04-12T21:38:20.534Z,2.63
2018-04-12T21:40:48.336Z,2.77
2018-04-12T21:43:15.816Z,2.50
2018-04-12T21:45:44.084Z,2.80
2018-04-12T21:48:12.340Z,2.53
2018-04-12T21:50:39.824Z,2.53
2018-04-12T21:53:07.304Z,2.60
2018-04-12T21:55:34.804Z,3.63
2018-04-12T21:58:02.330Z,3.63
2018-04-12T22:00:29.806Z,2.80
2018-04-12T22:02:57.291Z,2.60
2018-04-12T22:05:24.769Z,3.07
2018-04-12T22:07:52.255Z,2.40
2018-04-12T22:10:20.493Z,2.90
2018-04-12T22:12:48.029Z,2.93
2018-04-12T22:15:16.274Z,2.57
2018-04-12T22:17:43.768Z,2.30
2018-04-12T22:20:12.004Z,2.23
2018-04-12T22:22:39.520Z,2.53
2018-04-12T22:25:06.975Z,2.50
2018-04-12T22:27:34.475Z,2.40
2018-04-12T22:30:02.746Z,2.20
2018-04-12T22:32:30.271Z,2.13
2018-04-12T22:34:57.775Z,2.57
2018-04-12T22:37:25.546Z,2.33
2018-04-12T22:39:53.069Z,2.27
2018-04-12T22:42:21.306Z,2.67
2018-04-12T22:44:49.716Z,2.93
2018-04-12T22:47:17.176Z,2.97
2018-04-12T22:49:45.008Z,3.03
2018-04-12T22:52:12.488Z,2.70
2018-04-12T22:54:39.988Z,2.80
2018-04-12T22:57:07.527Z,2.83
2018-04-12T22:59:35.020Z,2.43
2018-04-12T23:02:02.478Z,2.67
2018-04-12T23:04:30.446Z,3.27
2018-04-12T23:06:57.955Z,2.63
2018-04-12T23:09:25.440Z,2.47
2018-04-12T23:11:52.918Z,2.30
2018-04-12T23:14:20.408Z,2.40
2018-04-12T23:16:48.640Z,2.90
2018-04-12T23:19:16.128Z,2.37
2018-04-12T23:21:43.608Z,2.87
2018-04-12T23:24:11.086Z,2.80
2018-04-12T23:26:38.564Z,2.77
2018-04-12T23:29:06.858Z,3.07
2018-04-12T23:31:34.834Z,2.90
2018-04-12T23:34:02.314Z,3.07
2018-04-12T23:36:29.831Z,2.70
2018-04-12T23:38:57.367Z,2.80
2018-04-12T23:41:24.844Z,3.00
2018-04-12T23:43:52.331Z,3.93
2018-04-12T23:46:20.580Z,3.27
2018-04-12T23:48:48.058Z,3.53
2018-04-12T23:51:15.617Z,3.10
2018-04-12T23:53:43.090Z,2.87
2018-04-12T23:56:10.583Z,2.90
2018-04-12T23:58:38.066Z,2.80
